NOWCASTING

Pagina 3 di 6 Precedente  1, 2, 3, 4, 5, 6  Seguente

Andare in basso

Re: NOWCASTING

Messaggio  luca93 il Ven 13 Mar 2009 - 16:46

18,3°C
avatar
luca93
Admin

Maschio Numero di messaggi : 93
Età : 25
RISPETTOSO :
PUNTI : 52
Data d'iscrizione : 27.01.09

Visualizza il profilo

Torna in alto Andare in basso

Re: NOWCASTING

Messaggio  Admin il Ven 13 Mar 2009 - 17:14

17.9°
avatar
Admin
Admin

Maschio Numero di messaggi : 369
LOCALITA' : Senago (MI) 176 mt. s.l.m.
HOBBY : APPASSIONATO METEO
RISPETTOSO :
PUNTI : 470
Data d'iscrizione : 27.01.09

Visualizza il profilo http://aeromet.forumattivo.com

Torna in alto Andare in basso

Re: NOWCASTING

Messaggio  Admin il Ven 13 Mar 2009 - 21:03

TEMPERATURA: 15.3°
UR: 48%
PRESSIONE: 1014 hpa stazionaria
VENTO: debole di direzione w/sw
SOLE TRAMONTATO, CIELO SERENO O POCO NUVOLOSO PER VIA DI STRATIFICAZIONI E NUMEROSE SCIE DI AEREI
avatar
Admin
Admin

Maschio Numero di messaggi : 369
LOCALITA' : Senago (MI) 176 mt. s.l.m.
HOBBY : APPASSIONATO METEO
RISPETTOSO :
PUNTI : 470
Data d'iscrizione : 27.01.09

Visualizza il profilo http://aeromet.forumattivo.com

Torna in alto Andare in basso

Re: NOWCASTING

Messaggio  Admin il Sab 14 Mar 2009 - 17:15

TEMPERATURA: 16.4°
UR: 48%
PRESSIONE: 1018 hpa
VENTO: molto debole variabile ma prevalentemente da w
CIELO NUVOLOSO PER STRATIFICAZIONI
avatar
Admin
Admin

Maschio Numero di messaggi : 369
LOCALITA' : Senago (MI) 176 mt. s.l.m.
HOBBY : APPASSIONATO METEO
RISPETTOSO :
PUNTI : 470
Data d'iscrizione : 27.01.09

Visualizza il profilo http://aeromet.forumattivo.com

Torna in alto Andare in basso

Re: NOWCASTING

Messaggio  andmac il Sab 14 Mar 2009 - 17:31

Riassunto:
LIML 141350Z VRB02KT 9999 SCT090 15/02 Q1019 NOSIG=
LIMC 141350Z VRB03KT 5000 HZ FEW060 14/01 Q1019 NOSIG=
avatar
andmac
Admin

Maschio Numero di messaggi : 39
Età : 25
LOCALITA' : Arese (MI)
HOBBY : aeronautica
RISPETTOSO :
PUNTI : 0
Data d'iscrizione : 28.01.09

Visualizza il profilo http://www.aeromet.forumattivo.com

Torna in alto Andare in basso

Re: NOWCASTING

Messaggio  andmac il Sab 14 Mar 2009 - 23:33

Per chi non lo sapesse LIMC è Malpensa e LIML è Linate.
avatar
andmac
Admin

Maschio Numero di messaggi : 39
Età : 25
LOCALITA' : Arese (MI)
HOBBY : aeronautica
RISPETTOSO :
PUNTI : 0
Data d'iscrizione : 28.01.09

Visualizza il profilo http://www.aeromet.forumattivo.com

Torna in alto Andare in basso

Re: NOWCASTING

Messaggio  Admin il Dom 15 Mar 2009 - 0:48

andmac ha scritto:Per chi non lo sapesse LIMC è Malpensa e LIML è Linate.

DELL' LIML C'è IL "RADIOSONDAGGIO"
avatar
Admin
Admin

Maschio Numero di messaggi : 369
LOCALITA' : Senago (MI) 176 mt. s.l.m.
HOBBY : APPASSIONATO METEO
RISPETTOSO :
PUNTI : 470
Data d'iscrizione : 27.01.09

Visualizza il profilo http://aeromet.forumattivo.com

Torna in alto Andare in basso

Re: NOWCASTING

Messaggio  Admin il Dom 15 Mar 2009 - 0:50

TEMPERATURA: 9.7°
UR: 67%
PRESSIONE: 1019 hpa
VENTO: ASSENTE
CIELO: VELATO, FOSCHIA
avatar
Admin
Admin

Maschio Numero di messaggi : 369
LOCALITA' : Senago (MI) 176 mt. s.l.m.
HOBBY : APPASSIONATO METEO
RISPETTOSO :
PUNTI : 470
Data d'iscrizione : 27.01.09

Visualizza il profilo http://aeromet.forumattivo.com

Torna in alto Andare in basso

Re: NOWCASTING

Messaggio  Admin il Dom 15 Mar 2009 - 14:57

TEMPERATURA: 15.3°
UR: 57%
PRESSIONE: 1020 hpa
VENTO: DEBOLE DA SW
CIELO: SERENO, FOSCHIA
avatar
Admin
Admin

Maschio Numero di messaggi : 369
LOCALITA' : Senago (MI) 176 mt. s.l.m.
HOBBY : APPASSIONATO METEO
RISPETTOSO :
PUNTI : 470
Data d'iscrizione : 27.01.09

Visualizza il profilo http://aeromet.forumattivo.com

Torna in alto Andare in basso

Re: NOWCASTING

Messaggio  andmac il Dom 15 Mar 2009 - 21:50

Ecco i metar di alcuni eroporti italiani:
LIMA 151750Z 00000KT CAVOK 16/01 Q1018 RMK VIS MIN 9999
LIMC 151820Z VRB02KT 6000 NSC 16/03 Q1019 NOSIG
LIME 151820Z VRB02KT 3000 BR NSC 13/06 Q1019
LIMF 151750Z 34004KT 8000 NSC 16/04 Q1019=
LIMG 151750Z 00000KT CAVOK 12/10 Q1020 RMK VIS MIN 9999
LIMJ 151820Z VRB02KT 9999 SCT018 13/09 Q1021
LIMK 151755Z 12004KT CAVOK 13/01 Q1018 RMK VAL FOSCHIA SKC SUP VIS MIN 9999
LIML 151820Z 00000KT 5000 BR FEW090 13/03 Q1019 NOSIG
LIMP 151750Z VRB03KT 5000 BR NSC 14/06 Q1020 RMK VIS MIN 5000
LIMS 151755Z /////KT 7000 SCT050 12/06 Q1019 RMK SCT VIS MIN 7000 WIND THR30 11004KT WHT
LIMU 151755Z 23004KT CAVOK 12/12 Q1020 RMK QUK / QUL / VIS MAR 15 KM VIS MIN 9999
LIMV 151755Z 18005KT 0600 FG VV004 10/09 Q1020 RMK MON INVIS VAL INVIS VIS MIN 0600
LIMY 151755Z 00000KT 6000 NSC 17/06 Q1018 RMK VAL FOSCHIA SKC SUP VIS MIN 6000
LIMZ 151750Z 05003KT 6000 NSC 14/06 Q1019 RMK VIS MIN 5000W

Buona lettura!! Very Happy Very Happy

_________________
AndMac
avatar
andmac
Admin

Maschio Numero di messaggi : 39
Età : 25
LOCALITA' : Arese (MI)
HOBBY : aeronautica
RISPETTOSO :
PUNTI : 0
Data d'iscrizione : 28.01.09

Visualizza il profilo http://www.aeromet.forumattivo.com

Torna in alto Andare in basso

Re: NOWCASTING

Messaggio  Admin il Lun 16 Mar 2009 - 22:42

TEMPERATURA: 12.5°
UR: 50%
PRESSIONE: 1026 hpa
VENTO: MOLTO DEBOLE GENERALMENTE DA W/SW
CIELO: SERENO, LEGGERA FOSCHIA
avatar
Admin
Admin

Maschio Numero di messaggi : 369
LOCALITA' : Senago (MI) 176 mt. s.l.m.
HOBBY : APPASSIONATO METEO
RISPETTOSO :
PUNTI : 470
Data d'iscrizione : 27.01.09

Visualizza il profilo http://aeromet.forumattivo.com

Torna in alto Andare in basso

Re: NOWCASTING

Messaggio  Admin il Lun 16 Mar 2009 - 22:48

IN TEMPO REALE














FULMINAZIONI




webcam

MILANO





+





CREMIA RIFUGIO CANUA 1500 mt. s.l.m. VISTA LAGO DI LECCO (GRIGNE, LEGNONE...)



RIVA DEL GARDA (TN)



Ultima modifica di Admin il Mer 18 Mar 2009 - 0:50, modificato 4 volte
avatar
Admin
Admin

Maschio Numero di messaggi : 369
LOCALITA' : Senago (MI) 176 mt. s.l.m.
HOBBY : APPASSIONATO METEO
RISPETTOSO :
PUNTI : 470
Data d'iscrizione : 27.01.09

Visualizza il profilo http://aeromet.forumattivo.com

Torna in alto Andare in basso

Re: NOWCASTING

Messaggio  Admin il Mar 17 Mar 2009 - 18:47

TEMPERATURA: 18.4° in calo
UR: 40% in aumento
PRESSIONE: 1023 hpa in calo
VENTO: MOLTO DEBOLE DA SW
CIELO: NUVOLOSO PER STRATIFICAZIONI (PERCHE'?)
avatar
Admin
Admin

Maschio Numero di messaggi : 369
LOCALITA' : Senago (MI) 176 mt. s.l.m.
HOBBY : APPASSIONATO METEO
RISPETTOSO :
PUNTI : 470
Data d'iscrizione : 27.01.09

Visualizza il profilo http://aeromet.forumattivo.com

Torna in alto Andare in basso

Re: NOWCASTING

Messaggio  Admin il Mar 17 Mar 2009 - 22:12

TEMPERATURA: 14.7°
UR: 47%
PRESSIONE: 1024 hpa
VENTO: ASSENTE
CIELO: NUVOLOSO
avatar
Admin
Admin

Maschio Numero di messaggi : 369
LOCALITA' : Senago (MI) 176 mt. s.l.m.
HOBBY : APPASSIONATO METEO
RISPETTOSO :
PUNTI : 470
Data d'iscrizione : 27.01.09

Visualizza il profilo http://aeromet.forumattivo.com

Torna in alto Andare in basso

Re: NOWCASTING

Messaggio  Admin il Mer 18 Mar 2009 - 17:05

TEMPERATURA: 19.1°
UR: 34%
PRESSIONE: 1018 hpa in leggero calo
VENTO: MOLTO DEBOLE DA NE
CIELO: SERENO
avatar
Admin
Admin

Maschio Numero di messaggi : 369
LOCALITA' : Senago (MI) 176 mt. s.l.m.
HOBBY : APPASSIONATO METEO
RISPETTOSO :
PUNTI : 470
Data d'iscrizione : 27.01.09

Visualizza il profilo http://aeromet.forumattivo.com

Torna in alto Andare in basso

Re: NOWCASTING

Messaggio  Admin il Mer 18 Mar 2009 - 18:57

28.4° al sole!!!!!!!!!!!!!!
avatar
Admin
Admin

Maschio Numero di messaggi : 369
LOCALITA' : Senago (MI) 176 mt. s.l.m.
HOBBY : APPASSIONATO METEO
RISPETTOSO :
PUNTI : 470
Data d'iscrizione : 27.01.09

Visualizza il profilo http://aeromet.forumattivo.com

Torna in alto Andare in basso

Re: NOWCASTING

Messaggio  Admin il Gio 19 Mar 2009 - 17:41

TEMPERATURA: 18.8°
UR: 32%
PRESSIONE: 1011 hpa IN RAPIDO CALO
VENTO: MOLTO DEBOLE DA SW
CIELO: SERENO CON FORMAZIONE DI PICCOLI CUMULETTI
avatar
Admin
Admin

Maschio Numero di messaggi : 369
LOCALITA' : Senago (MI) 176 mt. s.l.m.
HOBBY : APPASSIONATO METEO
RISPETTOSO :
PUNTI : 470
Data d'iscrizione : 27.01.09

Visualizza il profilo http://aeromet.forumattivo.com

Torna in alto Andare in basso

Re: NOWCASTING

Messaggio  dar93cs il Gio 19 Mar 2009 - 19:11

TEMP:16.7
VENTO:DEBOLE
CIELO:POCO NUVOLOSO
UR:31%
avatar
dar93cs

Maschio Numero di messaggi : 189
Età : 25
LOCALITA' : Cassina Nuova di Bollate(MI)
HOBBY : METEO
RISPETTOSO :
PUNTI : 172
Data d'iscrizione : 19.02.09

Visualizza il profilo

Torna in alto Andare in basso

Re: NOWCASTING

Messaggio  Admin il Ven 20 Mar 2009 - 17:14

TEMPERATURA: 11.3°
UR: 40%
PRESSIONE: 1019 hpa
VENTO: ASSENTE
CIELO: POCO NUVOLOSO, PICCOLI CUMULETTI.
avatar
Admin
Admin

Maschio Numero di messaggi : 369
LOCALITA' : Senago (MI) 176 mt. s.l.m.
HOBBY : APPASSIONATO METEO
RISPETTOSO :
PUNTI : 470
Data d'iscrizione : 27.01.09

Visualizza il profilo http://aeromet.forumattivo.com

Torna in alto Andare in basso

Re: NOWCASTING

Messaggio  dar93cs il Ven 20 Mar 2009 - 19:20

direi che comincia a farsi sempre maggiore la probabilita' di vedere domani mattina scritto sul display della staz.meteo un bel -2
calo direi molto veloce da ormai 40 minuti,e con il sole ancora presente,ora ho 9.5,appena cala il sole calo deciso arrivero' a mezzanotte con 2/3°C poi calo netto nella notte quando vento e cielo saranno calmi(cielo sereno)irraggiamento fortissimo e calo veloce e domani mattina probabili i -2
IN TEORIA CI SONO SICURAMENTE I -2 MA NELLA PRATICA COME ANDRA?
avatar
dar93cs

Maschio Numero di messaggi : 189
Età : 25
LOCALITA' : Cassina Nuova di Bollate(MI)
HOBBY : METEO
RISPETTOSO :
PUNTI : 172
Data d'iscrizione : 19.02.09

Visualizza il profilo

Torna in alto Andare in basso

Re: NOWCASTING

Messaggio  dar93cs il Ven 20 Mar 2009 - 20:31

il calo va abbastanza bene ora 8.2,cielo poco nuvoloso elatura bassa(sono quelle che ostacolano,ma appena se ne vanno..),verdremo..
avatar
dar93cs

Maschio Numero di messaggi : 189
Età : 25
LOCALITA' : Cassina Nuova di Bollate(MI)
HOBBY : METEO
RISPETTOSO :
PUNTI : 172
Data d'iscrizione : 19.02.09

Visualizza il profilo

Torna in alto Andare in basso

Re: NOWCASTING

Messaggio  dar93cs il Ven 20 Mar 2009 - 22:01

RAGAZZI CIELO CHE DA SERENO E DIVENTATO QUASI COPERTO,TEMP FERMATA DALLE NUBI A 7.8,VENTO ASSENTE.....COSA SONO LE FAMOSE ROVINA CALO O ULTIME SOPRESE?SEMBRA CHE VENGANO DA MI (LE NUB
avatar
dar93cs

Maschio Numero di messaggi : 189
Età : 25
LOCALITA' : Cassina Nuova di Bollate(MI)
HOBBY : METEO
RISPETTOSO :
PUNTI : 172
Data d'iscrizione : 19.02.09

Visualizza il profilo

Torna in alto Andare in basso

Re: NOWCASTING

Messaggio  dar93cs il Sab 21 Mar 2009 - 0:47

fin'ora previsione circa rispettata,temp di 6.4vento debole,cielo coperto(7/8),forse qualche speranza per il +1 c'e
avatar
dar93cs

Maschio Numero di messaggi : 189
Età : 25
LOCALITA' : Cassina Nuova di Bollate(MI)
HOBBY : METEO
RISPETTOSO :
PUNTI : 172
Data d'iscrizione : 19.02.09

Visualizza il profilo

Torna in alto Andare in basso

Re: NOWCASTING

Messaggio  dar93cs il Sab 21 Mar 2009 - 18:52

calo termico iniziato da poco
attualmente ho 10.9° in calo,ur 36%.vento debole con locali rinforzi,cielo sereno,sole splendente.
avatar
dar93cs

Maschio Numero di messaggi : 189
Età : 25
LOCALITA' : Cassina Nuova di Bollate(MI)
HOBBY : METEO
RISPETTOSO :
PUNTI : 172
Data d'iscrizione : 19.02.09

Visualizza il profilo

Torna in alto Andare in basso

Re: NOWCASTING

Messaggio  Admin il Sab 21 Mar 2009 - 21:04

TEMPERATURA: 8.1° in calo
UR: 32%
PRESSIONE: 1018 hpa
VENTO: ASSENTE
CIELO SERENO, LIMPIDO
avatar
Admin
Admin

Maschio Numero di messaggi : 369
LOCALITA' : Senago (MI) 176 mt. s.l.m.
HOBBY : APPASSIONATO METEO
RISPETTOSO :
PUNTI : 470
Data d'iscrizione : 27.01.09

Visualizza il profilo http://aeromet.forumattivo.com

Torna in alto Andare in basso

Re: NOWCASTING

Messaggio  Contenuto sponsorizzato


Contenuto sponsorizzato


Torna in alto Andare in basso

Pagina 3 di 6 Precedente  1, 2, 3, 4, 5, 6  Seguente

Torna in alto


 
Permessi di questa sezione del forum:
Non puoi rispondere agli argomenti in questo forum